createdAt,value
2022-10-11T00:00:15.296Z,4.25
2022-10-11T00:03:19.604Z,4.20
2022-10-11T00:06:23.524Z,4.35
2022-10-11T00:09:27.494Z,4.15
2022-10-11T00:12:31.718Z,4.43
2022-10-11T00:15:35.702Z,4.38
2022-10-11T00:18:40.050Z,4.40
2022-10-11T00:21:44.185Z,4.40
2022-10-11T00:24:48.491Z,4.53
2022-10-11T00:27:52.458Z,4.25
2022-10-11T00:30:56.686Z,4.30
2022-10-11T00:34:00.835Z,4.07
2022-10-11T00:37:04.816Z,4.28
2022-10-11T00:40:14.475Z,3.78
2022-10-11T00:43:22.126Z,3.58
2022-10-11T00:46:28.740Z,3.45
2022-10-11T00:49:41.017Z,3.00
2022-10-11T00:52:50.086Z,3.22
2022-10-11T00:56:02.912Z,3.03
2022-10-11T00:59:20.762Z,2.80
2022-10-11T01:02:25.313Z,2.80
2022-10-11T01:05:30.678Z,2.70
2022-10-11T01:08:34.957Z,2.40
2022-10-11T01:11:41.921Z,2.45
2022-10-11T01:15:05.595Z,2.30
2022-10-11T01:18:44.423Z,2.10
2022-10-11T01:21:55.959Z,2.10
2022-10-11T01:25:15.109Z,2.20
2022-10-11T01:28:41.269Z,2.30
2022-10-11T01:32:02.555Z,2.67
2022-10-11T01:35:14.427Z,2.33
2022-10-11T01:38:43.625Z,2.67
2022-10-11T01:41:51.604Z,2.28
2022-10-11T01:44:58.174Z,1.95
2022-10-11T01:48:10.950Z,2.03
2022-10-11T01:51:15.320Z,2.20
2022-10-11T01:55:04.375Z,2.28
2022-10-11T01:58:43.467Z,2.13
2022-10-11T02:01:56.088Z,2.40
2022-10-11T02:05:12.423Z,2.08
2022-10-11T02:08:35.241Z,2.55
2022-10-11T02:11:39.179Z,2.17
2022-10-11T02:14:47.238Z,1.95
2022-10-11T02:17:56.000Z,2.00
2022-10-11T02:21:03.708Z,2.58
2022-10-11T02:24:20.717Z,2.88
2022-10-11T02:27:30.090Z,2.10
2022-10-11T02:30:35.740Z,2.20
2022-10-11T02:33:49.550Z,2.20
2022-10-11T02:36:59.719Z,3.08
2022-10-11T02:40:16.251Z,3.00
2022-10-11T02:43:29.588Z,2.28
2022-10-11T02:46:34.649Z,2.55
2022-10-11T02:49:38.606Z,2.70
2022-10-11T02:52:42.596Z,2.60
2022-10-11T02:55:47.975Z,2.63
2022-10-11T02:58:51.967Z,2.70
2022-10-11T03:01:55.965Z,2.28
2022-10-11T03:05:00.292Z,2.67
2022-10-11T03:08:04.590Z,2.50
2022-10-11T03:11:08.445Z,3.25
2022-10-11T03:14:12.252Z,2.30
2022-10-11T03:17:35.636Z,2.63
2022-10-11T03:20:39.887Z,2.70
2022-10-11T03:23:43.902Z,2.92
2022-10-11T03:26:47.831Z,2.88
2022-10-11T03:29:51.871Z,2.58
2022-10-11T03:32:58.507Z,2.47
2022-10-11T03:36:03.150Z,2.42
2022-10-11T03:39:07.502Z,2.80
2022-10-11T03:42:12.097Z,2.92
2022-10-11T03:45:16.273Z,3.03
2022-10-11T03:48:20.582Z,2.58
2022-10-11T03:51:24.679Z,2.90
2022-10-11T03:54:28.797Z,3.53
2022-10-11T03:57:32.691Z,2.80
2022-10-11T04:00:37.306Z,2.78
2022-10-11T04:03:41.065Z,2.78
2022-10-11T04:06:45.310Z,2.97
2022-10-11T04:09:49.528Z,2.95
2022-10-11T04:12:53.761Z,2.80
2022-10-11T04:15:57.849Z,2.58
2022-10-11T04:19:01.483Z,2.53
2022-10-11T04:22:05.706Z,2.67
2022-10-11T04:25:10.539Z,3.40
2022-10-11T04:28:14.975Z,3.70
2022-10-11T04:31:19.031Z,3.45
2022-10-11T04:34:23.044Z,3.72
2022-10-11T04:37:27.426Z,3.55
2022-10-11T04:40:31.741Z,2.90
2022-10-11T04:43:36.414Z,3.05
2022-10-11T04:46:40.255Z,3.60
2022-10-11T04:49:44.144Z,3.10
2022-10-11T04:52:48.097Z,3.53
2022-10-11T04:56:01.280Z,4.28
2022-10-11T05:02:09.651Z,3.10
2022-10-11T05:05:17.354Z,3.08
2022-10-11T05:08:23.189Z,4.15
2022-10-11T05:11:27.121Z,3.80
2022-10-11T05:14:31.004Z,3.08
2022-10-11T05:17:35.509Z,2.95
2022-10-11T05:20:39.454Z,4.35
2022-10-11T05:23:43.597Z,3.90
2022-10-11T05:26:47.804Z,4.40
2022-10-11T05:29:51.613Z,3.80
2022-10-11T05:32:55.625Z,3.88
2022-10-11T05:36:00.552Z,3.80
2022-10-11T05:39:04.574Z,3.60
2022-10-11T05:42:10.002Z,3.60
2022-10-11T05:45:13.928Z,3.65
2022-10-11T05:48:18.233Z,4.03
2022-10-11T05:51:22.203Z,4.25
2022-10-11T05:54:30.007Z,4.13
2022-10-11T05:57:34.046Z,4.15
2022-10-11T06:00:38.519Z,4.03
2022-10-11T06:03:42.546Z,4.53
2022-10-11T06:06:46.244Z,3.97
2022-10-11T06:09:51.109Z,5.13
2022-10-11T06:12:55.040Z,4.65
2022-10-11T06:15:58.810Z,5.45
2022-10-11T06:19:02.850Z,4.63
2022-10-11T06:22:07.085Z,4.80
2022-10-11T06:25:11.310Z,4.20
2022-10-11T06:28:15.275Z,4.72
2022-10-11T06:31:19.544Z,5.53
2022-10-11T06:34:23.604Z,5.18
2022-10-11T06:37:29.419Z,4.00
2022-10-11T06:40:33.599Z,4.00
2022-10-11T06:43:37.960Z,3.97
2022-10-11T06:46:41.976Z,4.47
2022-10-11T06:49:46.147Z,4.05
2022-10-11T06:52:50.067Z,4.60
2022-10-11T06:55:54.016Z,3.60
2022-10-11T06:58:59.007Z,3.72
2022-10-11T07:02:02.854Z,3.92
2022-10-11T07:05:08.424Z,4.05
2022-10-11T07:08:12.650Z,3.80
2022-10-11T07:11:21.834Z,4.22
2022-10-11T07:14:26.183Z,4.00
2022-10-11T07:17:30.046Z,4.13
2022-10-11T07:20:34.003Z,4.00
2022-10-11T07:23:38.472Z,3.92
2022-10-11T07:26:42.509Z,4.97
2022-10-11T07:29:46.813Z,3.53
2022-10-11T07:32:50.886Z,8.25
2022-10-11T07:35:57.045Z,5.05
2022-10-11T07:39:02.704Z,4.70
2022-10-11T07:42:06.844Z,4.18
2022-10-11T07:45:10.760Z,4.82
2022-10-11T07:48:15.334Z,3.67
2022-10-11T07:51:21.726Z,3.85
2022-10-11T07:54:25.747Z,4.15
2022-10-11T07:57:29.648Z,3.88
2022-10-11T08:00:34.340Z,3.30
2022-10-11T08:03:38.812Z,4.03
2022-10-11T08:06:42.565Z,3.75
2022-10-11T08:09:46.273Z,3.42
2022-10-11T08:12:50.147Z,3.55
2022-10-11T08:15:54.547Z,3.95
2022-10-11T08:18:58.717Z,3.10
2022-10-11T08:22:02.927Z,3.47
2022-10-11T08:25:07.243Z,2.55
2022-10-11T08:28:16.843Z,2.70
2022-10-11T08:31:21.324Z,3.30
2022-10-11T08:34:25.481Z,2.63
2022-10-11T08:37:29.322Z,3.65
2022-10-11T08:40:35.409Z,3.42
2022-10-11T08:43:55.705Z,2.50
2022-10-11T08:47:12.679Z,3.00
2022-10-11T08:50:19.935Z,2.40
2022-10-11T08:53:28.167Z,3.15
2022-10-11T08:56:36.082Z,2.65
2022-10-11T08:59:55.914Z,2.70
2022-10-11T09:03:23.369Z,2.70
2022-10-11T09:07:15.895Z,2.90
2022-10-11T09:10:45.443Z,2.42
2022-10-11T09:14:06.984Z,2.63
2022-10-11T09:17:17.206Z,2.63
2022-10-11T09:20:47.555Z,3.08
2022-10-11T09:24:12.885Z,2.65
2022-10-11T09:27:50.262Z,3.00
2022-10-11T09:30:55.446Z,3.03
2022-10-11T09:34:10.285Z,2.75
2022-10-11T09:37:42.039Z,2.78
2022-10-11T09:41:14.695Z,2.60
2022-10-11T09:44:28.148Z,2.55
2022-10-11T09:47:33.049Z,3.60
2022-10-11T09:50:39.258Z,3.45
2022-10-11T09:53:56.367Z,3.03
2022-10-11T09:57:00.042Z,2.83
2022-10-11T10:00:21.753Z,3.33
2022-10-11T10:03:38.077Z,2.58
2022-10-11T10:06:41.951Z,2.55
2022-10-11T10:09:46.487Z,2.58
2022-10-11T10:12:55.403Z,2.88
2022-10-11T10:15:59.627Z,2.40
2022-10-11T10:19:06.989Z,2.45
2022-10-11T10:22:37.314Z,2.50
2022-10-11T10:25:43.712Z,2.20
2022-10-11T10:29:01.868Z,2.17
2022-10-11T10:32:23.072Z,2.60
2022-10-11T10:35:31.548Z,2.20
2022-10-11T10:38:39.852Z,2.58
2022-10-11T10:41:44.121Z,2.33
2022-10-11T10:44:53.706Z,2.05
2022-10-11T10:48:14.336Z,2.60
2022-10-11T10:51:41.625Z,2.28
2022-10-11T10:54:56.370Z,2.00
2022-10-11T10:58:21.636Z,2.85
2022-10-11T11:01:33.706Z,2.22
2022-10-11T11:04:37.769Z,2.53
2022-10-11T11:07:54.489Z,2.10
2022-10-11T11:11:19.134Z,2.53
2022-10-11T11:14:50.713Z,2.25
2022-10-11T11:18:25.872Z,2.60
2022-10-11T11:21:45.563Z,2.13
2022-10-11T11:25:22.342Z,2.25
2022-10-11T11:28:40.184Z,2.83
2022-10-11T11:31:57.967Z,1.95
2022-10-11T11:35:07.422Z,2.90
2022-10-11T11:38:14.722Z,2.33
2022-10-11T11:41:25.873Z,2.17
2022-10-11T11:44:34.650Z,2.22
2022-10-11T11:47:44.010Z,2.08
2022-10-11T11:51:08.793Z,2.30
2022-10-11T11:54:32.199Z,1.92
2022-10-11T11:57:56.749Z,1.90
2022-10-11T12:01:22.553Z,1.75
2022-10-11T12:04:33.061Z,2.25
2022-10-11T12:07:59.970Z,2.10
2022-10-11T12:11:05.330Z,1.73
2022-10-11T12:14:22.200Z,2.03
2022-10-11T12:17:26.158Z,2.10
2022-10-11T12:20:33.373Z,2.10
2022-10-11T12:23:40.792Z,2.00
2022-10-11T12:26:47.122Z,2.10
2022-10-11T12:29:51.579Z,1.77
2022-10-11T12:33:13.338Z,2.17
2022-10-11T12:36:35.915Z,1.80
2022-10-11T12:39:49.086Z,2.15
2022-10-11T12:46:32.942Z,2.22
2022-10-11T12:49:48.074Z,1.98
2022-10-11T12:53:03.731Z,1.98
2022-10-11T12:56:20.312Z,2.20
2022-10-11T12:59:24.534Z,2.53
2022-10-11T13:02:40.892Z,2.10
2022-10-11T13:05:49.720Z,2.15
2022-10-11T13:09:07.202Z,2.28
2022-10-11T13:12:23.272Z,2.15
2022-10-11T13:15:28.498Z,1.90
2022-10-11T13:18:32.619Z,2.00
2022-10-11T13:21:37.373Z,2.58
2022-10-11T13:24:43.671Z,1.80
2022-10-11T13:27:48.644Z,1.95
2022-10-11T13:30:56.030Z,1.67
2022-10-11T13:33:59.849Z,1.83
2022-10-11T13:37:04.543Z,2.30
2022-10-11T13:40:17.338Z,2.15
2022-10-11T13:43:28.767Z,1.80
2022-10-11T13:46:33.898Z,2.25
2022-10-11T13:49:38.810Z,2.13
2022-10-11T13:53:16.733Z,1.80
2022-10-11T13:56:20.552Z,1.75
2022-10-11T13:59:28.054Z,1.80
2022-10-11T14:02:32.634Z,1.52
2022-10-11T14:05:39.689Z,1.90
2022-10-11T14:08:49.753Z,1.80
2022-10-11T14:11:55.096Z,2.10
2022-10-11T14:15:00.691Z,1.75
2022-10-11T14:18:36.869Z,1.90
2022-10-11T14:21:45.673Z,2.13
2022-10-11T14:24:49.815Z,1.83
2022-10-11T14:27:54.664Z,1.95
2022-10-11T14:30:58.661Z,1.95
2022-10-11T14:34:03.955Z,2.08
2022-10-11T14:37:09.509Z,1.67
2022-10-11T14:40:17.304Z,1.90
2022-10-11T14:43:21.351Z,1.75
2022-10-11T14:46:27.028Z,1.98
2022-10-11T14:49:33.624Z,2.42
2022-10-11T14:52:37.592Z,1.88
2022-10-11T14:55:42.084Z,2.00
2022-10-11T14:58:46.589Z,1.90
2022-10-11T15:01:53.780Z,1.90
2022-10-11T15:04:58.083Z,1.92
2022-10-11T15:08:03.958Z,2.30
2022-10-11T15:11:09.436Z,1.77
2022-10-11T15:14:13.913Z,2.00
2022-10-11T15:17:17.695Z,2.55
2022-10-11T15:20:26.797Z,2.28
2022-10-11T15:23:31.222Z,1.95
2022-10-11T15:26:35.558Z,1.85
2022-10-11T15:29:39.628Z,1.80
2022-10-11T15:32:43.487Z,2.28
2022-10-11T15:35:47.731Z,1.80
2022-10-11T15:38:51.902Z,1.90
2022-10-11T15:41:57.534Z,2.10
2022-10-11T15:45:01.694Z,2.15
2022-10-11T15:48:06.273Z,2.33
2022-10-11T15:51:10.442Z,1.90
2022-10-11T15:54:14.731Z,1.95
2022-10-11T15:57:18.673Z,2.10
2022-10-11T16:00:22.602Z,2.70
2022-10-11T16:03:29.104Z,3.35
2022-10-11T16:06:33.270Z,2.15
2022-10-11T16:09:37.234Z,2.10
2022-10-11T16:12:41.270Z,2.47
2022-10-11T16:15:46.373Z,1.95
2022-10-11T16:18:50.771Z,3.35
2022-10-11T16:21:54.640Z,2.30
2022-10-11T16:24:58.731Z,2.03
2022-10-11T16:28:03.964Z,2.15
2022-10-11T16:31:14.738Z,2.10
2022-10-11T16:34:19.060Z,2.05
2022-10-11T16:37:23.138Z,2.10
2022-10-11T16:40:28.187Z,2.20
2022-10-11T16:43:32.148Z,2.08
2022-10-11T16:46:36.135Z,2.47
2022-10-11T16:49:40.152Z,2.40
2022-10-11T16:52:44.208Z,2.05
2022-10-11T16:55:48.098Z,2.30
2022-10-11T16:58:53.347Z,2.40
2022-10-11T17:01:57.948Z,2.63
2022-10-11T17:05:02.430Z,2.72
2022-10-11T17:08:06.922Z,2.13
2022-10-11T17:11:11.422Z,2.83
2022-10-11T17:14:15.854Z,2.47
2022-10-11T17:17:21.010Z,2.70
2022-10-11T17:20:25.223Z,2.42
2022-10-11T17:23:29.222Z,2.60
2022-10-11T17:26:34.507Z,2.58
2022-10-11T17:29:38.826Z,2.35
2022-10-11T17:32:43.027Z,2.75
2022-10-11T17:35:48.300Z,2.65
2022-10-11T17:38:52.405Z,2.58
2022-10-11T17:41:57.017Z,3.20
2022-10-11T17:45:01.769Z,2.80
2022-10-11T17:48:05.761Z,2.70
2022-10-11T17:51:13.583Z,3.63
2022-10-11T17:54:17.560Z,3.97
2022-10-11T17:57:21.693Z,2.90
2022-10-11T18:00:25.721Z,3.00
2022-10-11T18:03:29.661Z,3.10
2022-10-11T18:06:39.001Z,2.95
2022-10-11T18:09:43.252Z,3.15
2022-10-11T18:12:47.502Z,3.30
2022-10-11T18:15:53.719Z,3.47
2022-10-11T18:18:58.774Z,4.30
2022-10-11T18:22:06.771Z,3.80
2022-10-11T18:25:11.292Z,4.60
2022-10-11T18:28:17.489Z,4.95
2022-10-11T18:31:25.165Z,5.10
2022-10-11T18:34:28.972Z,5.78
2022-10-11T18:37:32.872Z,5.30
2022-10-11T18:40:42.343Z,6.20
2022-10-11T18:43:55.431Z,6.68
2022-10-11T18:46:59.810Z,9.15
2022-10-11T18:50:03.975Z,7.93
2022-10-11T18:53:08.192Z,5.80
2022-10-11T18:56:16.732Z,4.95
2022-10-11T18:59:20.883Z,5.15
2022-10-11T19:02:24.891Z,5.53
2022-10-11T19:05:28.721Z,5.60
2022-10-11T19:08:32.608Z,5.47
2022-10-11T19:11:37.820Z,5.50
2022-10-11T19:14:41.907Z,4.82
2022-10-11T19:17:45.962Z,5.63
2022-10-11T19:20:49.760Z,5.03
2022-10-11T19:23:55.484Z,5.35
2022-10-11T19:27:02.638Z,4.90
2022-10-11T19:30:07.581Z,5.70
2022-10-11T19:33:11.599Z,5.47
2022-10-11T19:36:15.807Z,6.70
2022-10-11T19:39:21.233Z,6.53
2022-10-11T19:42:24.926Z,5.80
2022-10-11T19:45:28.692Z,6.95
2022-10-11T19:48:32.825Z,6.63
2022-10-11T19:51:38.133Z,7.00
2022-10-11T19:54:42.263Z,6.80
2022-10-11T19:57:46.162Z,7.85
2022-10-11T20:01:01.761Z,8.15
2022-10-11T20:04:08.147Z,7.28
2022-10-11T20:07:12.245Z,7.20
2022-10-11T20:10:16.132Z,6.38
2022-10-11T20:13:20.939Z,6.75
2022-10-11T20:16:27.221Z,7.53
2022-10-11T20:19:31.877Z,7.55
2022-10-11T20:22:36.002Z,7.30
2022-10-11T20:25:39.791Z,7.43
2022-10-11T20:28:44.640Z,8.43
2022-10-11T20:31:48.574Z,7.05
2022-10-11T20:34:52.350Z,7.43
2022-10-11T20:37:56.209Z,8.32
2022-10-11T20:41:04.882Z,7.82
2022-10-11T20:44:09.727Z,7.38
2022-10-11T20:47:13.992Z,8.25
2022-10-11T20:50:22.833Z,8.45
2022-10-11T20:53:28.526Z,8.63
2022-10-11T20:56:33.777Z,8.55
2022-10-11T20:59:37.942Z,9.05
2022-10-11T21:02:41.981Z,8.85
2022-10-11T21:05:46.403Z,8.82
2022-10-11T21:08:50.485Z,8.98
2022-10-11T21:11:54.506Z,9.15
2022-10-11T21:14:58.673Z,8.60
2022-10-11T21:18:02.433Z,8.93
2022-10-11T21:21:14.246Z,8.75
2022-10-11T21:24:18.231Z,9.57
2022-10-11T21:27:22.103Z,9.27
2022-10-11T21:30:26.449Z,9.27
2022-10-11T21:33:30.337Z,9.30
2022-10-11T21:36:34.724Z,9.73
2022-10-11T21:39:38.360Z,8.98
2022-10-11T21:42:42.212Z,8.05
2022-10-11T21:45:46.657Z,7.65
2022-10-11T21:48:51.291Z,7.20
2022-10-11T21:51:55.342Z,7.32
2022-10-11T21:54:59.475Z,7.63
2022-10-11T21:58:03.390Z,9.13
2022-10-11T22:01:07.516Z,9.38
2022-10-11T22:04:12.022Z,8.93
2022-10-11T22:07:15.762Z,8.55
2022-10-11T22:10:19.726Z,8.52
2022-10-11T22:13:24.920Z,8.85
2022-10-11T22:16:29.159Z,8.73
2022-10-11T22:19:33.027Z,8.50
2022-10-11T22:22:37.437Z,8.05
2022-10-11T22:25:42.079Z,8.60
2022-10-11T22:28:46.848Z,9.45
2022-10-11T22:31:51.470Z,9.50
2022-10-11T22:34:55.922Z,8.68
2022-10-11T22:37:59.537Z,9.52
2022-10-11T22:41:03.632Z,9.18
2022-10-11T22:44:07.692Z,8.88
2022-10-11T22:47:12.079Z,8.75
2022-10-11T22:50:15.928Z,9.02
2022-10-11T22:53:20.461Z,10.10
2022-10-11T22:56:24.412Z,9.57
2022-10-11T22:59:28.175Z,9.02
2022-10-11T23:02:32.044Z,9.50
2022-10-11T23:05:36.317Z,9.80
2022-10-11T23:08:40.452Z,9.65
2022-10-11T23:11:44.434Z,7.35
2022-10-11T23:14:48.428Z,7.38
2022-10-11T23:17:52.194Z,6.55
2022-10-11T23:20:59.773Z,7.35
2022-10-11T23:24:03.883Z,7.05
2022-10-11T23:27:08.212Z,7.78
2022-10-11T23:30:13.226Z,7.60
2022-10-11T23:33:17.552Z,8.27
2022-10-11T23:36:24.191Z,8.23
2022-10-11T23:39:28.446Z,7.82
2022-10-11T23:42:32.337Z,7.80
2022-10-11T23:45:36.714Z,8.18
2022-10-11T23:48:40.880Z,8.20
2022-10-11T23:51:45.225Z,7.97
2022-10-11T23:54:48.802Z,8.13
2022-10-11T23:57:52.675Z,8.35
